Weather Forecast for Al Maktoum Airport  
Thursday, February 22, 2018 (02:35 UTC)
Al Maktoum International Airport
Last Updated: --/--/---- (--:--Z)
Wind Dir/Speed: --- --
Temperature: --.-
Rel. Humidity: ---
Pressure: ----
Visibility: ----
  • METAR OMDW 211900Z 05003KT 7000 NSC 18/15 Q1013 NOSIG
DWC AIRPORT WEATHER FORECAST FOR 30 HOUR:
DWC TAF:
TAF OMDW 212303Z 2200/2306 12005KT 5000 HZ NSC 
 PROB30 2201/2205 1500 BR 
 BECMG 2205/2207 8000 NSW 
 BECMG 2209/2211 30012KT 
 BECMG 2215/2217 16005KT=
VALID FROM:
2018-02-22 00:00Z
VALID TILL:
2018-02-23 06:00Z
SURFACE WIND:
ESE'LY 05KT

BECOMING WNW'LY 12KT FROM 0900Z-1100Z TODAY

BECOMING SSE'LY 05KT FROM 1500Z-1700Z TODAY.
VISIBILITY:
5000 M,
30% PROBABILITY OF 1500 M BETWEEN 0100Z-0500Z TODAY,
20% PROBABILITY OF 0100 M BETWEEN 0100Z-0500Z TODAY,
BECOMING 07-09 KM FROM 0500Z-0700Z TODAY.
WEATHER:
HAZY,
30% PROBABILITY OF MIST BETWEEN 0100Z-0500Z TODAY,
20% PROBABILITY OF FOG BETWEEN 0100Z-0500Z TODAY,
BECOMING FINE FROM 0500Z-0700Z TODAY.
CLOUD:
NIL SIGNIFICANT,
20% PROBABILITY OF SKY OBSCURED BETWEEN 0100Z-0500Z TODAY.
TEMPERATURE:
MIN TEMPERATURE 14°C AROUND 0330Z TODAY

MAX TEMPERATURE 28°C AROUND 1000Z TODAY

MIN TEMPERATURE 15°C AROUND 0330Z FRIDAY.
HUMIDITY:
MAX HUMIDITY 95% AROUND 0330Z TODAY

MIN HUMIDITY 30% AROUND 1000Z TODAY

MAX HUMIDITY 85% AROUND 0330Z FRIDAY.
WIND SHEAR:
NIL SIGNIFICANT.
TEMPERATURE INVERSION:
10°C SURFACE TO 1800FT TEMPERATURE INVERSION VALID UNTIL 0430Z TODAY.
COMMENTS:
NIL.